sensor_id;sensor_type;location;lat;lon;timestamp;temperature;humidity
18541;DHT22;9400;50.924;5.328;2023-09-19T00:00:38;16.20;99.90
18541;DHT22;9400;50.924;5.328;2023-09-19T00:03:07;16.20;99.90
18541;DHT22;9400;50.924;5.328;2023-09-19T00:05:37;16.10;99.90
18541;DHT22;9400;50.924;5.328;2023-09-19T00:08:05;16.10;99.90
18541;DHT22;9400;50.924;5.328;2023-09-19T00:10:34;16.10;99.90
18541;DHT22;9400;50.924;5.328;2023-09-19T00:13:02;16.10;99.90
18541;DHT22;9400;50.924;5.328;2023-09-19T00:15:39;16.10;99.90
18541;DHT22;9400;50.924;5.328;2023-09-19T00:18:08;16.10;99.90
18541;DHT22;9400;50.924;5.328;2023-09-19T00:20:36;16.10;99.90
18541;DHT22;9400;50.924;5.328;2023-09-19T00:23:04;16.10;99.90
18541;DHT22;9400;50.924;5.328;2023-09-19T00:25:35;16.10;99.90
18541;DHT22;9400;50.924;5.328;2023-09-19T00:28:03;16.10;99.90
18541;DHT22;9400;50.924;5.328;2023-09-19T00:30:33;16.00;99.90
18541;DHT22;9400;50.924;5.328;2023-09-19T00:33:02;16.00;99.90
18541;DHT22;9400;50.924;5.328;2023-09-19T00:35:32;16.00;99.90
18541;DHT22;9400;50.924;5.328;2023-09-19T00:38:00;16.00;99.90
18541;DHT22;9400;50.924;5.328;2023-09-19T00:40:29;16.00;99.90
18541;DHT22;9400;50.924;5.328;2023-09-19T00:42:59;16.00;99.90
18541;DHT22;9400;50.924;5.328;2023-09-19T00:45:27;16.00;99.90
18541;DHT22;9400;50.924;5.328;2023-09-19T00:47:55;16.10;99.90
18541;DHT22;9400;50.924;5.328;2023-09-19T00:50:25;16.10;99.90
18541;DHT22;9400;50.924;5.328;2023-09-19T00:52:55;16.10;99.90
18541;DHT22;9400;50.924;5.328;2023-09-19T00:55:24;16.00;99.90
18541;DHT22;9400;50.924;5.328;2023-09-19T00:57:52;16.00;99.90
18541;DHT22;9400;50.924;5.328;2023-09-19T01:00:20;16.00;99.90
18541;DHT22;9400;50.924;5.328;2023-09-19T01:02:49;16.00;99.90
18541;DHT22;9400;50.924;5.328;2023-09-19T01:05:16;16.00;99.90
18541;DHT22;9400;50.924;5.328;2023-09-19T01:07:45;15.90;99.90
18541;DHT22;9400;50.924;5.328;2023-09-19T01:10:16;15.90;99.90
18541;DHT22;9400;50.924;5.328;2023-09-19T01:12:51;15.90;99.90
18541;DHT22;9400;50.924;5.328;2023-09-19T01:15:28;15.90;99.90
18541;DHT22;9400;50.924;5.328;2023-09-19T01:20:55;15.80;99.90
18541;DHT22;9400;50.924;5.328;2023-09-19T01:23:32;15.80;99.90
18541;DHT22;9400;50.924;5.328;2023-09-19T01:26:10;15.80;99.90
18541;DHT22;9400;50.924;5.328;2023-09-19T01:28:58;15.70;99.90
18541;DHT22;9400;50.924;5.328;2023-09-19T01:31:33;15.80;99.90
18541;DHT22;9400;50.924;5.328;2023-09-19T01:34:03;15.70;99.90
18541;DHT22;9400;50.924;5.328;2023-09-19T01:36:34;15.70;99.90
18541;DHT22;9400;50.924;5.328;2023-09-19T01:39:03;15.70;99.90
18541;DHT22;9400;50.924;5.328;2023-09-19T01:41:49;15.70;99.90
18541;DHT22;9400;50.924;5.328;2023-09-19T01:44:29;15.70;99.90
18541;DHT22;9400;50.924;5.328;2023-09-19T01:47:06;15.70;99.90
18541;DHT22;9400;50.924;5.328;2023-09-19T01:49:44;15.70;99.90
18541;DHT22;9400;50.924;5.328;2023-09-19T01:52:16;15.70;99.90
18541;DHT22;9400;50.924;5.328;2023-09-19T01:54:49;15.60;99.90
18541;DHT22;9400;50.924;5.328;2023-09-19T01:57:26;15.70;99.90
18541;DHT22;9400;50.924;5.328;2023-09-19T02:00:01;15.60;99.90
18541;DHT22;9400;50.924;5.328;2023-09-19T02:02:35;15.70;99.90
18541;DHT22;9400;50.924;5.328;2023-09-19T02:05:04;15.70;99.90
18541;DHT22;9400;50.924;5.328;2023-09-19T02:07:32;15.60;99.90
18541;DHT22;9400;50.924;5.328;2023-09-19T02:10:04;15.60;99.90
18541;DHT22;9400;50.924;5.328;2023-09-19T02:12:33;15.60;99.90
18541;DHT22;9400;50.924;5.328;2023-09-19T02:15:01;15.50;99.90
18541;DHT22;9400;50.924;5.328;2023-09-19T02:17:29;15.50;99.90
18541;DHT22;9400;50.924;5.328;2023-09-19T02:19:58;15.50;99.90
18541;DHT22;9400;50.924;5.328;2023-09-19T02:22:26;15.50;99.90
18541;DHT22;9400;50.924;5.328;2023-09-19T02:24:54;15.40;99.90
18541;DHT22;9400;50.924;5.328;2023-09-19T02:27:24;15.50;99.90
18541;DHT22;9400;50.924;5.328;2023-09-19T02:29:51;15.50;99.90
18541;DHT22;9400;50.924;5.328;2023-09-19T02:32:19;15.50;99.90
18541;DHT22;9400;50.924;5.328;2023-09-19T02:34:46;15.50;99.90
18541;DHT22;9400;50.924;5.328;2023-09-19T02:37:16;15.40;99.90
18541;DHT22;9400;50.924;5.328;2023-09-19T02:39:45;15.40;99.90
18541;DHT22;9400;50.924;5.328;2023-09-19T02:42:13;15.40;99.90
18541;DHT22;9400;50.924;5.328;2023-09-19T02:44:40;15.40;99.90
18541;DHT22;9400;50.924;5.328;2023-09-19T02:47:08;15.50;99.90
18541;DHT22;9400;50.924;5.328;2023-09-19T02:49:35;15.40;99.90
18541;DHT22;9400;50.924;5.328;2023-09-19T02:52:03;15.40;99.90
18541;DHT22;9400;50.924;5.328;2023-09-19T02:54:34;15.40;99.90
18541;DHT22;9400;50.924;5.328;2023-09-19T02:57:03;15.40;99.90
18541;DHT22;9400;50.924;5.328;2023-09-19T02:59:32;15.30;99.90
18541;DHT22;9400;50.924;5.328;2023-09-19T03:02:03;15.30;99.90
18541;DHT22;9400;50.924;5.328;2023-09-19T03:04:31;15.30;99.90
18541;DHT22;9400;50.924;5.328;2023-09-19T03:07:01;15.30;99.90
18541;DHT22;9400;50.924;5.328;2023-09-19T03:09:30;15.30;99.90
18541;DHT22;9400;50.924;5.328;2023-09-19T03:11:59;15.30;99.90
18541;DHT22;9400;50.924;5.328;2023-09-19T03:14:26;15.30;99.90
18541;DHT22;9400;50.924;5.328;2023-09-19T03:16:56;15.30;99.90
18541;DHT22;9400;50.924;5.328;2023-09-19T03:19:24;15.20;99.90
18541;DHT22;9400;50.924;5.328;2023-09-19T03:21:52;15.20;99.90
18541;DHT22;9400;50.924;5.328;2023-09-19T03:24:20;15.30;99.90
18541;DHT22;9400;50.924;5.328;2023-09-19T03:26:49;15.10;99.90
18541;DHT22;9400;50.924;5.328;2023-09-19T03:29:19;15.10;99.90
18541;DHT22;9400;50.924;5.328;2023-09-19T03:31:46;15.10;99.90
18541;DHT22;9400;50.924;5.328;2023-09-19T03:34:14;15.10;99.90
18541;DHT22;9400;50.924;5.328;2023-09-19T03:36:42;15.20;99.90
18541;DHT22;9400;50.924;5.328;2023-09-19T03:39:09;15.10;99.90
18541;DHT22;9400;50.924;5.328;2023-09-19T03:41:37;15.10;99.90
18541;DHT22;9400;50.924;5.328;2023-09-19T03:44:05;15.10;99.90
18541;DHT22;9400;50.924;5.328;2023-09-19T03:46:34;15.10;99.90
18541;DHT22;9400;50.924;5.328;2023-09-19T03:49:03;15.10;99.90
18541;DHT22;9400;50.924;5.328;2023-09-19T03:51:31;15.20;99.90
18541;DHT22;9400;50.924;5.328;2023-09-19T03:54:00;15.20;99.90
18541;DHT22;9400;50.924;5.328;2023-09-19T03:56:29;15.20;99.90
18541;DHT22;9400;50.924;5.328;2023-09-19T03:58:57;15.20;99.90
18541;DHT22;9400;50.924;5.328;2023-09-19T04:01:24;15.20;99.90
18541;DHT22;9400;50.924;5.328;2023-09-19T04:03:55;15.20;99.90
18541;DHT22;9400;50.924;5.328;2023-09-19T04:06:23;15.10;99.90
18541;DHT22;9400;50.924;5.328;2023-09-19T04:08:51;15.20;99.90
18541;DHT22;9400;50.924;5.328;2023-09-19T04:11:19;15.20;99.90
18541;DHT22;9400;50.924;5.328;2023-09-19T04:13:47;15.20;99.90
18541;DHT22;9400;50.924;5.328;2023-09-19T04:16:14;15.30;99.90
18541;DHT22;9400;50.924;5.328;2023-09-19T04:18:44;15.30;99.90
18541;DHT22;9400;50.924;5.328;2023-09-19T04:21:13;15.30;99.90
18541;DHT22;9400;50.924;5.328;2023-09-19T04:23:41;15.30;99.90
18541;DHT22;9400;50.924;5.328;2023-09-19T04:26:09;15.30;99.90
18541;DHT22;9400;50.924;5.328;2023-09-19T04:28:38;15.30;99.90
18541;DHT22;9400;50.924;5.328;2023-09-19T04:31:06;15.30;99.90
18541;DHT22;9400;50.924;5.328;2023-09-19T04:33:36;15.30;99.90
18541;DHT22;9400;50.924;5.328;2023-09-19T04:36:04;15.40;99.90
18541;DHT22;9400;50.924;5.328;2023-09-19T04:38:34;15.40;99.90
18541;DHT22;9400;50.924;5.328;2023-09-19T04:41:02;15.40;99.90
18541;DHT22;9400;50.924;5.328;2023-09-19T04:43:30;15.40;99.90
18541;DHT22;9400;50.924;5.328;2023-09-19T04:45:58;15.40;99.90
18541;DHT22;9400;50.924;5.328;2023-09-19T04:48:27;15.30;99.90
18541;DHT22;9400;50.924;5.328;2023-09-19T04:50:55;15.20;99.90
18541;DHT22;9400;50.924;5.328;2023-09-19T04:53:22;15.30;99.90
18541;DHT22;9400;50.924;5.328;2023-09-19T04:55:52;15.20;99.90
18541;DHT22;9400;50.924;5.328;2023-09-19T04:58:21;15.10;99.90
18541;DHT22;9400;50.924;5.328;2023-09-19T05:00:49;15.00;99.90
18541;DHT22;9400;50.924;5.328;2023-09-19T05:03:17;14.90;99.90
18541;DHT22;9400;50.924;5.328;2023-09-19T05:05:46;15.00;99.90
18541;DHT22;9400;50.924;5.328;2023-09-19T05:08:14;14.90;99.90
18541;DHT22;9400;50.924;5.328;2023-09-19T05:10:41;14.90;99.90
18541;DHT22;9400;50.924;5.328;2023-09-19T05:13:10;14.90;99.90
18541;DHT22;9400;50.924;5.328;2023-09-19T05:15:37;14.90;99.90
18541;DHT22;9400;50.924;5.328;2023-09-19T05:18:05;14.90;99.90
18541;DHT22;9400;50.924;5.328;2023-09-19T05:20:34;14.90;99.90
18541;DHT22;9400;50.924;5.328;2023-09-19T05:23:05;14.90;99.90
18541;DHT22;9400;50.924;5.328;2023-09-19T05:25:34;14.90;99.90
18541;DHT22;9400;50.924;5.328;2023-09-19T05:28:05;14.80;99.90
18541;DHT22;9400;50.924;5.328;2023-09-19T05:30:35;14.80;99.90
18541;DHT22;9400;50.924;5.328;2023-09-19T05:33:04;14.80;99.90
18541;DHT22;9400;50.924;5.328;2023-09-19T05:35:35;14.80;99.90
18541;DHT22;9400;50.924;5.328;2023-09-19T05:38:03;14.80;99.90
18541;DHT22;9400;50.924;5.328;2023-09-19T05:40:31;14.80;99.90
18541;DHT22;9400;50.924;5.328;2023-09-19T05:42:59;14.70;99.90
18541;DHT22;9400;50.924;5.328;2023-09-19T05:45:26;14.80;99.90
18541;DHT22;9400;50.924;5.328;2023-09-19T05:47:56;14.70;99.90
18541;DHT22;9400;50.924;5.328;2023-09-19T05:50:34;14.70;99.90
18541;DHT22;9400;50.924;5.328;2023-09-19T05:53:02;14.80;99.90
18541;DHT22;9400;50.924;5.328;2023-09-19T05:55:30;14.80;99.90
18541;DHT22;9400;50.924;5.328;2023-09-19T05:57:57;14.90;99.90
18541;DHT22;9400;50.924;5.328;2023-09-19T06:00:26;14.90;99.90
18541;DHT22;9400;50.924;5.328;2023-09-19T06:02:53;14.80;99.90
18541;DHT22;9400;50.924;5.328;2023-09-19T06:05:23;14.90;99.90
18541;DHT22;9400;50.924;5.328;2023-09-19T06:07:52;15.00;99.90
18541;DHT22;9400;50.924;5.328;2023-09-19T06:10:20;14.90;99.90
18541;DHT22;9400;50.924;5.328;2023-09-19T06:12:49;14.90;99.90
18541;DHT22;9400;50.924;5.328;2023-09-19T06:15:17;15.00;99.90
18541;DHT22;9400;50.924;5.328;2023-09-19T06:17:48;15.00;99.90
18541;DHT22;9400;50.924;5.328;2023-09-19T06:20:16;15.10;99.90
18541;DHT22;9400;50.924;5.328;2023-09-19T06:22:45;15.00;99.90
18541;DHT22;9400;50.924;5.328;2023-09-19T06:25:14;15.10;99.90
18541;DHT22;9400;50.924;5.328;2023-09-19T06:27:45;15.20;99.90
18541;DHT22;9400;50.924;5.328;2023-09-19T06:30:13;15.10;99.90
18541;DHT22;9400;50.924;5.328;2023-09-19T06:32:41;15.10;99.90
18541;DHT22;9400;50.924;5.328;2023-09-19T06:35:13;15.10;99.90
18541;DHT22;9400;50.924;5.328;2023-09-19T06:37:44;15.20;99.90
18541;DHT22;9400;50.924;5.328;2023-09-19T06:40:12;15.10;99.90
18541;DHT22;9400;50.924;5.328;2023-09-19T06:42:41;15.20;99.90
18541;DHT22;9400;50.924;5.328;2023-09-19T06:45:09;15.30;99.90
18541;DHT22;9400;50.924;5.328;2023-09-19T06:47:40;15.30;99.90
18541;DHT22;9400;50.924;5.328;2023-09-19T06:50:09;15.40;99.90
18541;DHT22;9400;50.924;5.328;2023-09-19T06:52:40;15.40;99.90
18541;DHT22;9400;50.924;5.328;2023-09-19T06:55:09;15.50;99.90
18541;DHT22;9400;50.924;5.328;2023-09-19T06:57:39;15.60;99.90
18541;DHT22;9400;50.924;5.328;2023-09-19T07:00:08;15.60;99.90
18541;DHT22;9400;50.924;5.328;2023-09-19T07:02:41;15.70;99.90
18541;DHT22;9400;50.924;5.328;2023-09-19T07:05:09;15.60;99.90
18541;DHT22;9400;50.924;5.328;2023-09-19T07:07:37;15.70;99.90
18541;DHT22;9400;50.924;5.328;2023-09-19T07:10:05;15.80;99.90
18541;DHT22;9400;50.924;5.328;2023-09-19T07:12:35;15.80;99.90
18541;DHT22;9400;50.924;5.328;2023-09-19T07:15:06;15.90;99.90
18541;DHT22;9400;50.924;5.328;2023-09-19T07:17:34;15.90;99.90
18541;DHT22;9400;50.924;5.328;2023-09-19T07:20:03;15.90;99.90
18541;DHT22;9400;50.924;5.328;2023-09-19T07:22:34;15.90;99.90
18541;DHT22;9400;50.924;5.328;2023-09-19T07:25:02;15.90;99.90
18541;DHT22;9400;50.924;5.328;2023-09-19T07:27:29;15.90;99.90
18541;DHT22;9400;50.924;5.328;2023-09-19T07:29:58;16.00;99.90
18541;DHT22;9400;50.924;5.328;2023-09-19T07:32:26;16.00;99.90
18541;DHT22;9400;50.924;5.328;2023-09-19T07:34:54;16.10;99.90
18541;DHT22;9400;50.924;5.328;2023-09-19T07:37:22;16.20;99.90
18541;DHT22;9400;50.924;5.328;2023-09-19T07:39:51;16.20;99.90
18541;DHT22;9400;50.924;5.328;2023-09-19T07:42:19;16.20;99.90
18541;DHT22;9400;50.924;5.328;2023-09-19T07:44:46;16.10;99.90
18541;DHT22;9400;50.924;5.328;2023-09-19T07:47:18;16.20;99.90
18541;DHT22;9400;50.924;5.328;2023-09-19T07:49:47;16.30;99.90
18541;DHT22;9400;50.924;5.328;2023-09-19T07:52:15;16.40;99.90
18541;DHT22;9400;50.924;5.328;2023-09-19T07:54:42;16.40;99.90
18541;DHT22;9400;50.924;5.328;2023-09-19T07:57:10;16.30;99.90
18541;DHT22;9400;50.924;5.328;2023-09-19T07:59:38;16.40;99.90
18541;DHT22;9400;50.924;5.328;2023-09-19T08:02:08;16.60;99.90
18541;DHT22;9400;50.924;5.328;2023-09-19T08:04:43;16.70;99.90
18541;DHT22;9400;50.924;5.328;2023-09-19T08:07:12;16.60;99.90
18541;DHT22;9400;50.924;5.328;2023-09-19T08:09:40;16.70;99.90
18541;DHT22;9400;50.924;5.328;2023-09-19T08:12:12;16.80;99.90
18541;DHT22;9400;50.924;5.328;2023-09-19T08:14:41;16.80;99.90
18541;DHT22;9400;50.924;5.328;2023-09-19T08:17:08;16.90;99.90
18541;DHT22;9400;50.924;5.328;2023-09-19T08:19:36;16.90;99.90
18541;DHT22;9400;50.924;5.328;2023-09-19T08:22:10;16.90;99.90
18541;DHT22;9400;50.924;5.328;2023-09-19T08:24:38;16.80;99.90
18541;DHT22;9400;50.924;5.328;2023-09-19T08:27:05;16.80;99.90
18541;DHT22;9400;50.924;5.328;2023-09-19T08:29:35;17.00;99.90
18541;DHT22;9400;50.924;5.328;2023-09-19T08:32:03;17.00;99.90
18541;DHT22;9400;50.924;5.328;2023-09-19T08:34:31;17.00;99.90
18541;DHT22;9400;50.924;5.328;2023-09-19T08:37:00;17.10;99.90
18541;DHT22;9400;50.924;5.328;2023-09-19T08:39:29;17.20;99.90
18541;DHT22;9400;50.924;5.328;2023-09-19T08:41:59;17.20;99.90
18541;DHT22;9400;50.924;5.328;2023-09-19T08:44:28;17.20;99.90
18541;DHT22;9400;50.924;5.328;2023-09-19T08:47:00;17.20;99.90
18541;DHT22;9400;50.924;5.328;2023-09-19T08:49:39;17.30;99.90
18541;DHT22;9400;50.924;5.328;2023-09-19T08:52:16;17.30;99.90
18541;DHT22;9400;50.924;5.328;2023-09-19T08:54:52;17.30;99.90
18541;DHT22;9400;50.924;5.328;2023-09-19T08:57:21;17.40;99.90
18541;DHT22;9400;50.924;5.328;2023-09-19T08:59:49;17.50;99.90
18541;DHT22;9400;50.924;5.328;2023-09-19T09:02:19;17.60;99.90
18541;DHT22;9400;50.924;5.328;2023-09-19T09:04:49;17.80;99.90
18541;DHT22;9400;50.924;5.328;2023-09-19T09:07:17;17.80;99.90
18541;DHT22;9400;50.924;5.328;2023-09-19T09:09:46;18.00;99.90
18541;DHT22;9400;50.924;5.328;2023-09-19T09:12:15;18.00;99.90
18541;DHT22;9400;50.924;5.328;2023-09-19T09:14:45;17.90;99.90
18541;DHT22;9400;50.924;5.328;2023-09-19T09:17:13;18.00;99.90
18541;DHT22;9400;50.924;5.328;2023-09-19T09:19:41;18.00;99.90
18541;DHT22;9400;50.924;5.328;2023-09-19T09:22:10;18.00;99.90
18541;DHT22;9400;50.924;5.328;2023-09-19T09:24:51;18.00;99.90
18541;DHT22;9400;50.924;5.328;2023-09-19T09:27:21;18.20;99.90
18541;DHT22;9400;50.924;5.328;2023-09-19T09:29:51;18.30;99.90
18541;DHT22;9400;50.924;5.328;2023-09-19T09:32:22;18.40;99.90
18541;DHT22;9400;50.924;5.328;2023-09-19T09:34:54;18.40;99.90
18541;DHT22;9400;50.924;5.328;2023-09-19T09:37:22;18.50;99.90
18541;DHT22;9400;50.924;5.328;2023-09-19T09:39:52;18.60;99.90
18541;DHT22;9400;50.924;5.328;2023-09-19T09:42:36;18.50;99.90
18541;DHT22;9400;50.924;5.328;2023-09-19T09:45:16;18.50;99.90
18541;DHT22;9400;50.924;5.328;2023-09-19T09:47:45;18.80;99.90
18541;DHT22;9400;50.924;5.328;2023-09-19T09:50:29;18.70;99.90
18541;DHT22;9400;50.924;5.328;2023-09-19T09:53:20;18.80;99.90
18541;DHT22;9400;50.924;5.328;2023-09-19T09:55:59;19.20;99.90
18541;DHT22;9400;50.924;5.328;2023-09-19T09:58:29;19.30;99.90
18541;DHT22;9400;50.924;5.328;2023-09-19T10:00:59;18.80;99.90
18541;DHT22;9400;50.924;5.328;2023-09-19T10:03:36;18.80;99.90
18541;DHT22;9400;50.924;5.328;2023-09-19T10:06:10;18.60;99.90
18541;DHT22;9400;50.924;5.328;2023-09-19T10:09:07;18.60;99.90
18541;DHT22;9400;50.924;5.328;2023-09-19T10:11:42;18.60;99.90
18541;DHT22;9400;50.924;5.328;2023-09-19T10:14:15;18.70;99.90
18541;DHT22;9400;50.924;5.328;2023-09-19T10:16:46;18.80;99.90
18541;DHT22;9400;50.924;5.328;2023-09-19T10:19:23;19.10;99.90
18541;DHT22;9400;50.924;5.328;2023-09-19T10:21:51;19.10;99.90
18541;DHT22;9400;50.924;5.328;2023-09-19T10:24:22;19.00;99.90
18541;DHT22;9400;50.924;5.328;2023-09-19T10:26:51;18.90;99.90
18541;DHT22;9400;50.924;5.328;2023-09-19T10:29:22;19.00;99.90
18541;DHT22;9400;50.924;5.328;2023-09-19T10:31:53;19.10;99.90
18541;DHT22;9400;50.924;5.328;2023-09-19T10:34:22;19.30;99.90
18541;DHT22;9400;50.924;5.328;2023-09-19T10:36:51;19.30;99.90
18541;DHT22;9400;50.924;5.328;2023-09-19T10:39:19;19.20;99.90
18541;DHT22;9400;50.924;5.328;2023-09-19T10:41:51;19.00;99.90
18541;DHT22;9400;50.924;5.328;2023-09-19T10:44:24;19.20;99.90
18541;DHT22;9400;50.924;5.328;2023-09-19T10:46:52;19.20;99.90
18541;DHT22;9400;50.924;5.328;2023-09-19T10:49:20;19.20;99.90
18541;DHT22;9400;50.924;5.328;2023-09-19T10:51:52;19.30;99.90
18541;DHT22;9400;50.924;5.328;2023-09-19T10:54:27;19.50;99.90
18541;DHT22;9400;50.924;5.328;2023-09-19T10:56:56;19.50;99.90
18541;DHT22;9400;50.924;5.328;2023-09-19T10:59:27;19.90;99.90
18541;DHT22;9400;50.924;5.328;2023-09-19T11:02:16;20.00;99.90
18541;DHT22;9400;50.924;5.328;2023-09-19T11:04:44;19.90;99.90
18541;DHT22;9400;50.924;5.328;2023-09-19T11:07:15;19.90;99.90
18541;DHT22;9400;50.924;5.328;2023-09-19T11:09:44;19.90;99.90
18541;DHT22;9400;50.924;5.328;2023-09-19T11:12:12;20.00;99.90
18541;DHT22;9400;50.924;5.328;2023-09-19T11:14:42;20.10;99.90
18541;DHT22;9400;50.924;5.328;2023-09-19T11:17:41;20.00;99.90
18541;DHT22;9400;50.924;5.328;2023-09-19T11:20:24;20.20;99.90
18541;DHT22;9400;50.924;5.328;2023-09-19T11:23:18;20.40;99.90
18541;DHT22;9400;50.924;5.328;2023-09-19T11:25:50;20.20;99.90
18541;DHT22;9400;50.924;5.328;2023-09-19T11:28:35;20.20;99.90
18541;DHT22;9400;50.924;5.328;2023-09-19T11:31:44;20.30;99.90
18541;DHT22;9400;50.924;5.328;2023-09-19T11:34:43;20.10;99.90
18541;DHT22;9400;50.924;5.328;2023-09-19T11:40:33;20.70;99.90
18541;DHT22;9400;50.924;5.328;2023-09-19T11:43:31;20.60;99.90
18541;DHT22;9400;50.924;5.328;2023-09-19T11:46:04;20.40;99.90
18541;DHT22;9400;50.924;5.328;2023-09-19T11:48:35;21.20;99.90
18541;DHT22;9400;50.924;5.328;2023-09-19T11:51:12;21.20;99.90
18541;DHT22;9400;50.924;5.328;2023-09-19T11:53:46;21.10;99.90
18541;DHT22;9400;50.924;5.328;2023-09-19T11:56:16;20.80;99.90
18541;DHT22;9400;50.924;5.328;2023-09-19T11:58:45;20.80;99.90
18541;DHT22;9400;50.924;5.328;2023-09-19T12:01:13;21.20;99.90
18541;DHT22;9400;50.924;5.328;2023-09-19T12:03:53;21.00;99.90
18541;DHT22;9400;50.924;5.328;2023-09-19T12:06:24;21.20;99.90
18541;DHT22;9400;50.924;5.328;2023-09-19T12:08:52;21.20;99.90
18541;DHT22;9400;50.924;5.328;2023-09-19T12:11:22;21.30;99.90
18541;DHT22;9400;50.924;5.328;2023-09-19T12:13:50;21.50;99.90
18541;DHT22;9400;50.924;5.328;2023-09-19T12:16:19;21.40;99.90
18541;DHT22;9400;50.924;5.328;2023-09-19T12:18:50;21.50;99.90
18541;DHT22;9400;50.924;5.328;2023-09-19T12:21:27;21.90;99.90
18541;DHT22;9400;50.924;5.328;2023-09-19T12:24:04;22.00;99.90
18541;DHT22;9400;50.924;5.328;2023-09-19T12:26:39;22.10;99.90
18541;DHT22;9400;50.924;5.328;2023-09-19T12:29:13;22.40;99.90
18541;DHT22;9400;50.924;5.328;2023-09-19T12:31:51;21.70;99.90
18541;DHT22;9400;50.924;5.328;2023-09-19T12:34:22;21.70;99.90
18541;DHT22;9400;50.924;5.328;2023-09-19T12:37:06;21.50;99.90
18541;DHT22;9400;50.924;5.328;2023-09-19T12:39:42;21.30;99.90
18541;DHT22;9400;50.924;5.328;2023-09-19T12:42:10;21.80;99.90
18541;DHT22;9400;50.924;5.328;2023-09-19T12:44:42;21.90;99.90
18541;DHT22;9400;50.924;5.328;2023-09-19T12:47:14;21.80;99.90
18541;DHT22;9400;50.924;5.328;2023-09-19T12:50:13;21.60;99.90
18541;DHT22;9400;50.924;5.328;2023-09-19T12:52:44;21.70;99.90
18541;DHT22;9400;50.924;5.328;2023-09-19T12:55:21;21.40;99.90
18541;DHT22;9400;50.924;5.328;2023-09-19T12:58:08;21.10;99.90
18541;DHT22;9400;50.924;5.328;2023-09-19T13:00:38;20.90;99.90
18541;DHT22;9400;50.924;5.328;2023-09-19T13:03:15;20.70;99.90
18541;DHT22;9400;50.924;5.328;2023-09-19T13:05:51;20.80;99.90
18541;DHT22;9400;50.924;5.328;2023-09-19T13:08:24;21.50;99.90
18541;DHT22;9400;50.924;5.328;2023-09-19T13:11:05;22.40;99.90
18541;DHT22;9400;50.924;5.328;2023-09-19T13:13:42;22.00;99.90
18541;DHT22;9400;50.924;5.328;2023-09-19T13:16:11;21.50;99.90
18541;DHT22;9400;50.924;5.328;2023-09-19T13:18:48;21.30;99.90
18541;DHT22;9400;50.924;5.328;2023-09-19T13:21:30;21.00;99.90
18541;DHT22;9400;50.924;5.328;2023-09-19T13:24:19;21.40;99.90
18541;DHT22;9400;50.924;5.328;2023-09-19T13:26:47;21.50;99.90
18541;DHT22;9400;50.924;5.328;2023-09-19T13:29:15;21.70;99.90
18541;DHT22;9400;50.924;5.328;2023-09-19T13:31:47;21.80;99.90
18541;DHT22;9400;50.924;5.328;2023-09-19T13:34:14;21.60;99.90
18541;DHT22;9400;50.924;5.328;2023-09-19T13:36:45;21.50;99.90
18541;DHT22;9400;50.924;5.328;2023-09-19T13:39:14;21.50;99.90
18541;DHT22;9400;50.924;5.328;2023-09-19T13:41:43;21.50;99.90
18541;DHT22;9400;50.924;5.328;2023-09-19T13:44:11;21.40;99.90
18541;DHT22;9400;50.924;5.328;2023-09-19T13:46:38;21.10;99.90
18541;DHT22;9400;50.924;5.328;2023-09-19T13:49:09;21.70;99.90
18541;DHT22;9400;50.924;5.328;2023-09-19T13:51:37;22.30;99.90
18541;DHT22;9400;50.924;5.328;2023-09-19T13:54:10;23.70;99.90
18541;DHT22;9400;50.924;5.328;2023-09-19T13:56:39;24.90;99.90
18541;DHT22;9400;50.924;5.328;2023-09-19T13:59:06;24.30;99.90
18541;DHT22;9400;50.924;5.328;2023-09-19T14:01:35;22.70;99.90
18541;DHT22;9400;50.924;5.328;2023-09-19T14:04:05;21.80;99.90
18541;DHT22;9400;50.924;5.328;2023-09-19T14:06:33;21.20;99.90
18541;DHT22;9400;50.924;5.328;2023-09-19T14:09:04;21.20;99.90
18541;DHT22;9400;50.924;5.328;2023-09-19T14:11:35;20.70;99.90
18541;DHT22;9400;50.924;5.328;2023-09-19T14:14:03;20.80;99.90
18541;DHT22;9400;50.924;5.328;2023-09-19T14:16:30;20.80;99.90
18541;DHT22;9400;50.924;5.328;2023-09-19T14:18:59;20.80;99.90
18541;DHT22;9400;50.924;5.328;2023-09-19T14:21:27;20.70;99.90
18541;DHT22;9400;50.924;5.328;2023-09-19T14:23:54;20.60;99.90
18541;DHT22;9400;50.924;5.328;2023-09-19T14:26:23;20.50;99.90
18541;DHT22;9400;50.924;5.328;2023-09-19T14:28:52;20.40;99.90
18541;DHT22;9400;50.924;5.328;2023-09-19T14:31:20;20.50;99.90
18541;DHT22;9400;50.924;5.328;2023-09-19T14:33:53;20.30;99.90
18541;DHT22;9400;50.924;5.328;2023-09-19T14:36:22;20.30;99.90
18541;DHT22;9400;50.924;5.328;2023-09-19T14:38:53;20.50;99.90
18541;DHT22;9400;50.924;5.328;2023-09-19T14:41:24;20.50;99.90
18541;DHT22;9400;50.924;5.328;2023-09-19T14:43:52;20.60;99.90
18541;DHT22;9400;50.924;5.328;2023-09-19T14:46:21;20.80;99.90
18541;DHT22;9400;50.924;5.328;2023-09-19T14:48:51;20.80;99.90
18541;DHT22;9400;50.924;5.328;2023-09-19T14:51:18;20.80;99.90
18541;DHT22;9400;50.924;5.328;2023-09-19T14:53:46;21.00;99.90
18541;DHT22;9400;50.924;5.328;2023-09-19T14:56:15;20.90;99.90
18541;DHT22;9400;50.924;5.328;2023-09-19T14:58:45;21.00;99.90
18541;DHT22;9400;50.924;5.328;2023-09-19T15:01:15;20.90;99.90
18541;DHT22;9400;50.924;5.328;2023-09-19T15:03:43;20.70;99.90
18541;DHT22;9400;50.924;5.328;2023-09-19T15:06:12;20.60;99.90
18541;DHT22;9400;50.924;5.328;2023-09-19T15:08:41;20.30;99.90
18541;DHT22;9400;50.924;5.328;2023-09-19T15:11:12;20.40;99.90
18541;DHT22;9400;50.924;5.328;2023-09-19T15:13:42;20.40;99.90
18541;DHT22;9400;50.924;5.328;2023-09-19T15:16:10;20.50;99.90
18541;DHT22;9400;50.924;5.328;2023-09-19T15:18:41;20.60;99.90
18541;DHT22;9400;50.924;5.328;2023-09-19T15:21:10;20.70;99.90
18541;DHT22;9400;50.924;5.328;2023-09-19T15:23:40;20.80;99.90
18541;DHT22;9400;50.924;5.328;2023-09-19T15:26:10;20.70;99.90
18541;DHT22;9400;50.924;5.328;2023-09-19T15:28:39;20.70;99.90
18541;DHT22;9400;50.924;5.328;2023-09-19T15:31:08;21.00;99.90
18541;DHT22;9400;50.924;5.328;2023-09-19T15:33:36;21.00;99.90
18541;DHT22;9400;50.924;5.328;2023-09-19T15:36:06;21.00;99.90
18541;DHT22;9400;50.924;5.328;2023-09-19T15:38:56;21.20;99.90
18541;DHT22;9400;50.924;5.328;2023-09-19T15:41:24;20.90;99.90
18541;DHT22;9400;50.924;5.328;2023-09-19T15:43:53;22.00;99.90
18541;DHT22;9400;50.924;5.328;2023-09-19T15:46:21;22.50;99.90
18541;DHT22;9400;50.924;5.328;2023-09-19T15:48:49;21.50;99.90
18541;DHT22;9400;50.924;5.328;2023-09-19T15:51:19;21.20;99.90
18541;DHT22;9400;50.924;5.328;2023-09-19T15:53:48;20.90;99.90
18541;DHT22;9400;50.924;5.328;2023-09-19T15:56:16;20.40;99.90
18541;DHT22;9400;50.924;5.328;2023-09-19T15:58:44;20.40;99.90
18541;DHT22;9400;50.924;5.328;2023-09-19T16:01:11;20.40;99.90
18541;DHT22;9400;50.924;5.328;2023-09-19T16:03:43;20.20;99.90
18541;DHT22;9400;50.924;5.328;2023-09-19T16:06:12;20.10;99.90
18541;DHT22;9400;50.924;5.328;2023-09-19T16:08:42;20.00;99.90
18541;DHT22;9400;50.924;5.328;2023-09-19T16:11:09;20.10;99.90
18541;DHT22;9400;50.924;5.328;2023-09-19T16:13:38;20.20;99.90